Time,TemperatureF,DewpointF,PressureIn,WindDirection,WindDirectionDegrees,WindSpeedMPH,WindSpeedGustMPH,Humidity,HourlyPrecipIn,Conditions,Clouds,dailyrainin,SoftwareType,DateUTC
2013-04-29 00:03:00,55.4,55.1,29.83,East,90,2.7,-999.0,99,-99.99,,,0.01,Acu-Link.com,2013-04-29 04:03:00,
2013-04-29 00:18:00,55.4,55.1,29.83,South,180,1.6,-999.0,99,-99.99,,,0.04,Acu-Link.com,2013-04-29 04:18:00,
2013-04-29 00:33:00,55.4,55.1,29.83,East,90,1.6,-999.0,99,-99.99,,,0.06,Acu-Link.com,2013-04-29 04:33:00,
2013-04-29 00:48:00,55.4,55.1,29.82,West,270,1.6,-999.0,99,-99.99,,,0.09,Acu-Link.com,2013-04-29 04:48:00,
2013-04-29 01:03:00,55.4,55.1,29.83,WNW,292,1.1,-999.0,99,-99.99,,,0.13,Acu-Link.com,2013-04-29 05:03:00,
2013-04-29 01:19:00,55.4,55.1,29.83,WNW,292,0.0,-999.0,99,-99.99,,,0.14,Acu-Link.com,2013-04-29 05:19:00,
2013-04-29 01:34:00,55.4,55.1,29.83,North,0,2.0,-999.0,99,-99.99,,,0.15,Acu-Link.com,2013-04-29 05:34:00,
2013-04-29 01:49:00,55.4,55.1,29.83,NNE,22,0.0,-999.0,99,-99.99,,,0.18,Acu-Link.com,2013-04-29 05:49:00,
2013-04-29 02:05:00,55.4,55.1,29.83,NNE,22,0.0,-999.0,99,-99.99,,,0.25,Acu-Link.com,2013-04-29 06:05:00,
2013-04-29 02:20:00,55.4,55.1,29.82,NNW,337,0.0,-999.0,99,-99.99,,,0.26,Acu-Link.com,2013-04-29 06:20:00,
2013-04-29 02:35:00,55.4,55.1,29.82,NNE,22,0.0,-999.0,99,-99.99,,,0.26,Acu-Link.com,2013-04-29 06:35:00,
2013-04-29 02:50:00,55.4,55.1,29.82,WNW,292,0.0,-999.0,99,-99.99,,,0.27,Acu-Link.com,2013-04-29 06:50:00,
2013-04-29 03:05:00,55.4,55.1,29.82,NNW,337,0.0,-999.0,99,-99.99,,,0.27,Acu-Link.com,2013-04-29 07:05:00,
2013-04-29 03:21:00,55.4,55.1,29.81,West,270,0.0,-999.0,99,-99.99,,,0.27,Acu-Link.com,2013-04-29 07:21:00,
2013-04-29 03:36:00,55.4,55.1,29.81,West,270,0.0,-999.0,99,-99.99,,,0.27,Acu-Link.com,2013-04-29 07:36:00,
2013-04-29 03:51:00,55.4,55.1,50.87,North,0,0.0,-999.0,99,-99.99,,,0.28,Acu-Link.com,2013-04-29 07:51:00,
2013-04-29 04:07:00,55.4,55.1,29.81,NNE,22,0.0,-999.0,99,-99.99,,,0.31,Acu-Link.com,2013-04-29 08:07:00,
2013-04-29 04:22:00,55.4,55.1,29.80,NNE,22,0.0,-999.0,99,-99.99,,,0.31,Acu-Link.com,2013-04-29 08:22:00,
2013-04-29 04:37:00,55.4,55.1,29.79,East,90,0.0,-999.0,99,-99.99,,,0.32,Acu-Link.com,2013-04-29 08:37:00,
2013-04-29 04:52:00,55.4,55.1,29.78,West,270,0.0,-999.0,99,-99.99,,,0.32,Acu-Link.com,2013-04-29 08:52:00,
2013-04-29 05:08:00,55.4,55.1,29.79,WNW,292,0.0,-999.0,99,-99.99,,,0.33,Acu-Link.com,2013-04-29 09:08:00,
2013-04-29 05:23:00,55.4,55.1,29.79,NNW,337,0.0,-999.0,99,-99.99,,,0.33,Acu-Link.com,2013-04-29 09:23:00,
2013-04-29 05:38:00,55.4,55.1,29.80,North,0,0.0,-999.0,99,-99.99,,,0.34,Acu-Link.com,2013-04-29 09:38:00,
2013-04-29 05:54:00,55.4,55.1,29.80,ENE,67,1.1,-999.0,99,-99.99,,,0.34,Acu-Link.com,2013-04-29 09:54:00,
2013-04-29 06:09:00,55.4,55.1,29.80,East,90,0.0,-999.0,99,-99.99,,,0.35,Acu-Link.com,2013-04-29 10:09:00,
2013-04-29 06:24:00,55.4,55.1,29.80,West,270,0.0,-999.0,99,-99.99,,,0.37,Acu-Link.com,2013-04-29 10:24:00,
2013-04-29 06:39:00,55.4,55.1,29.81,East,90,0.0,-999.0,99,-99.99,,,0.37,Acu-Link.com,2013-04-29 10:39:00,
2013-04-29 06:54:00,55.4,55.1,29.81,SE,135,1.1,-999.0,99,-99.99,,,0.37,Acu-Link.com,2013-04-29 10:54:00,
2013-04-29 07:09:00,55.4,55.1,29.81,NNW,337,0.0,-999.0,99,-99.99,,,0.37,Acu-Link.com,2013-04-29 11:09:00,
2013-04-29 07:24:00,55.4,55.1,29.82,NNW,337,0.0,-999.0,99,-99.99,,,0.37,Acu-Link.com,2013-04-29 11:24:00,
2013-04-29 07:40:00,55.4,55.1,29.82,NNE,22,0.0,-999.0,99,-99.99,,,0.37,Acu-Link.com,2013-04-29 11:40:00,
2013-04-29 07:55:00,55.4,55.1,29.82,NNE,22,0.0,-999.0,99,-99.99,,,0.37,Acu-Link.com,2013-04-29 11:55:00,
2013-04-29 08:10:00,55.4,55.1,29.82,East,90,1.1,-999.0,99,-99.99,,,0.37,Acu-Link.com,2013-04-29 12:10:00,
2013-04-29 08:26:00,57.2,56.9,29.82,NW,315,1.6,-999.0,99,-99.99,,,0.37,Acu-Link.com,2013-04-29 12:26:00,
2013-04-29 08:41:00,57.2,56.9,29.83,West,270,0.0,-999.0,99,-99.99,,,0.37,Acu-Link.com,2013-04-29 12:41:00,
2013-04-29 08:56:00,59.0,58.7,29.82,NE,45,1.1,-999.0,99,-99.99,,,0.37,Acu-Link.com,2013-04-29 12:56:00,
2013-04-29 09:12:00,59.0,58.1,29.82,East,90,1.6,-999.0,97,-99.99,,,0.37,Acu-Link.com,2013-04-29 13:12:00,
2013-04-29 09:27:00,59.0,57.9,29.82,NW,315,2.7,-999.0,96,-99.99,,,0.37,Acu-Link.com,2013-04-29 13:27:00,
2013-04-29 09:42:00,60.8,59.1,29.81,South,180,0.0,-999.0,94,-99.99,,,0.37,Acu-Link.com,2013-04-29 13:42:00,
2013-04-29 09:58:00,60.8,58.5,29.82,NNW,337,2.7,-999.0,92,-99.99,,,0.37,Acu-Link.com,2013-04-29 13:58:00,
2013-04-29 10:13:00,62.6,59.6,29.81,SE,135,1.1,-999.0,90,-99.99,,,0.37,Acu-Link.com,2013-04-29 14:13:00,
2013-04-29 10:28:00,62.6,59.3,29.82,NW,315,2.0,-999.0,89,-99.99,,,0.37,Acu-Link.com,2013-04-29 14:28:00,
2013-04-29 10:43:00,62.6,59.0,29.82,NNW,337,0.0,-999.0,88,-99.99,,,0.37,Acu-Link.com,2013-04-29 14:43:00,
2013-04-29 10:58:00,62.6,59.0,29.82,ENE,67,0.0,-999.0,88,-99.99,,,0.37,Acu-Link.com,2013-04-29 14:58:00,
2013-04-29 11:14:00,62.6,59.0,29.83,NNW,337,1.6,-999.0,88,-99.99,,,0.37,Acu-Link.com,2013-04-29 15:14:00,
2013-04-29 11:29:00,62.6,59.3,29.83,SSW,202,1.1,-999.0,89,-99.99,,,0.37,Acu-Link.com,2013-04-29 15:29:00,
2013-04-29 11:44:00,62.6,58.7,29.84,SSW,202,1.6,-999.0,87,-99.99,,,0.37,Acu-Link.com,2013-04-29 15:44:00,
2013-04-29 12:00:00,64.4,59.1,29.83,South,180,1.6,-999.0,83,-99.99,,,0.37,Acu-Link.com,2013-04-29 16:00:00,
2013-04-29 12:15:00,62.6,57.7,29.83,South,180,1.6,-999.0,84,-99.99,,,0.37,Acu-Link.com,2013-04-29 16:15:00,
2013-04-29 12:30:00,64.4,59.5,29.83,SSW,202,2.7,-999.0,84,-99.99,,,0.37,Acu-Link.com,2013-04-29 16:30:00,
2013-04-29 12:46:00,66.2,59.8,29.82,South,180,3.1,-999.0,80,-99.99,,,0.37,Acu-Link.com,2013-04-29 16:46:00,
2013-04-29 13:01:00,68.0,60.5,29.82,SSE,157,1.6,-999.0,77,-99.99,,,0.37,Acu-Link.com,2013-04-29 17:01:00,
2013-04-29 13:16:00,68.0,60.5,29.81,West,270,2.7,-999.0,77,-99.99,,,0.37,Acu-Link.com,2013-04-29 17:16:00,
2013-04-29 13:31:00,66.2,59.8,29.81,South,180,0.0,-999.0,80,-99.99,,,0.37,Acu-Link.com,2013-04-29 17:31:00,
2013-04-29 13:47:00,66.2,60.2,29.81,ESE,112,2.7,-999.0,81,-99.99,,,0.37,Acu-Link.com,2013-04-29 17:47:00,
2013-04-29 14:02:00,69.8,61.1,29.81,ESE,112,1.6,-999.0,74,-99.99,,,0.37,Acu-Link.com,2013-04-29 18:02:00,
2013-04-29 14:17:00,69.8,61.1,29.80,SSE,157,2.0,-999.0,74,-99.99,,,0.37,Acu-Link.com,2013-04-29 18:17:00,
2013-04-29 14:33:00,68.0,59.8,29.80,SSE,157,3.1,-999.0,75,-99.99,,,0.37,Acu-Link.com,2013-04-29 18:33:00,
2013-04-29 14:48:00,68.0,59.8,29.79,South,180,3.6,-999.0,75,-99.99,,,0.37,Acu-Link.com,2013-04-29 18:48:00,
2013-04-29 15:03:00,71.6,60.9,29.78,SSE,157,2.7,-999.0,69,-99.99,,,0.37,Acu-Link.com,2013-04-29 19:03:00,
2013-04-29 15:19:00,73.4,60.5,29.78,NE,45,2.7,-999.0,64,-99.99,,,0.37,Acu-Link.com,2013-04-29 19:19:00,
2013-04-29 15:34:00,73.4,60.5,29.77,SE,135,1.6,-999.0,64,-99.99,,,0.37,Acu-Link.com,2013-04-29 19:34:00,
2013-04-29 15:49:00,73.4,60.9,29.75,WNW,292,1.1,-999.0,65,-99.99,,,0.37,Acu-Link.com,2013-04-29 19:49:00,
2013-04-29 16:04:00,75.2,60.3,29.76,SSE,157,2.7,-999.0,60,-99.99,,,0.37,Acu-Link.com,2013-04-29 20:04:00,
2013-04-29 16:19:00,71.6,59.2,29.75,South,180,2.7,-999.0,65,-99.99,,,0.37,Acu-Link.com,2013-04-29 20:19:00,
2013-04-29 16:34:00,73.4,60.0,29.74,South,180,2.7,-999.0,63,-99.99,,,0.37,Acu-Link.com,2013-04-29 20:34:00,
2013-04-29 16:49:00,77.0,61.6,29.74,South,180,2.0,-999.0,59,-99.99,,,0.37,Acu-Link.com,2013-04-29 20:49:00,
2013-04-29 17:05:00,80.6,61.3,29.73,SE,135,4.0,-999.0,52,-99.99,,,0.37,Acu-Link.com,2013-04-29 21:05:00,
2013-04-29 17:20:00,78.8,61.8,29.73,South,180,2.0,-999.0,56,-99.99,,,0.37,Acu-Link.com,2013-04-29 21:20:00,
2013-04-29 17:35:00,77.0,61.1,29.73,West,270,2.0,-999.0,58,-99.99,,,0.37,Acu-Link.com,2013-04-29 21:35:00,
2013-04-29 17:50:00,77.0,61.1,29.73,SSE,157,2.0,-999.0,58,-99.99,,,0.37,Acu-Link.com,2013-04-29 21:50:00,
2013-04-29 18:05:00,73.4,59.1,29.73,South,180,2.7,-999.0,61,-99.99,,,0.37,Acu-Link.com,2013-04-29 22:05:00,
2013-04-29 18:21:00,71.6,59.2,29.72,SE,135,0.0,-999.0,65,-99.99,,,0.37,Acu-Link.com,2013-04-29 22:21:00,
2013-04-29 18:36:00,73.4,60.0,29.73,SSW,202,1.6,-999.0,63,-99.99,,,0.37,Acu-Link.com,2013-04-29 22:36:00,
2013-04-29 18:51:00,73.4,60.0,29.73,NNW,337,1.1,-999.0,63,-99.99,,,0.37,Acu-Link.com,2013-04-29 22:51:00,
2013-04-29 19:06:00,73.4,60.0,29.74,West,270,0.0,-999.0,63,-99.99,,,0.37,Acu-Link.com,2013-04-29 23:06:00,
2013-04-29 19:22:00,71.6,60.5,29.73,West,270,1.6,-999.0,68,-99.99,,,0.37,Acu-Link.com,2013-04-29 23:22:00,
2013-04-29 19:37:00,69.8,60.7,29.74,NE,45,2.0,-999.0,73,-99.99,,,0.37,Acu-Link.com,2013-04-29 23:37:00,
2013-04-29 19:52:00,68.0,60.9,29.74,NNE,22,1.1,-999.0,78,-99.99,,,0.37,Acu-Link.com,2013-04-29 23:52:00,
2013-04-29 20:07:00,66.2,60.2,29.75,NNE,22,1.1,-999.0,81,-99.99,,,0.37,Acu-Link.com,2013-04-30 00:07:00,
2013-04-29 20:23:00,64.4,59.8,29.75,NNE,22,1.6,-999.0,85,-99.99,,,0.37,Acu-Link.com,2013-04-30 00:23:00,
2013-04-29 20:38:00,62.6,59.0,29.76,NNE,22,0.0,-999.0,88,-99.99,,,0.37,Acu-Link.com,2013-04-30 00:38:00,
2013-04-29 20:53:00,62.6,59.9,29.76,NNE,22,1.1,-999.0,91,-99.99,,,0.37,Acu-Link.com,2013-04-30 00:53:00,
2013-04-29 21:08:00,62.6,60.5,29.76,NNE,22,0.0,-999.0,93,-99.99,,,0.37,Acu-Link.com,2013-04-30 01:08:00,
2013-04-29 21:23:00,60.8,59.4,29.76,NNE,22,0.0,-999.0,95,-99.99,,,0.37,Acu-Link.com,2013-04-30 01:23:00,
2013-04-29 21:39:00,60.8,59.7,29.78,North,0,1.1,-999.0,96,-99.99,,,0.37,Acu-Link.com,2013-04-30 01:39:00,
2013-04-29 21:54:00,60.8,59.9,29.78,NE,45,0.0,-999.0,97,-99.99,,,0.37,Acu-Link.com,2013-04-30 01:54:00,
2013-04-29 22:09:00,60.8,59.9,29.78,NE,45,1.1,-999.0,97,-99.99,,,0.37,Acu-Link.com,2013-04-30 02:09:00,
2013-04-29 22:24:00,60.8,60.2,29.79,NNE,22,1.1,-999.0,98,-99.99,,,0.37,Acu-Link.com,2013-04-30 02:24:00,
2013-04-29 22:40:00,60.8,60.5,29.79,NNE,22,1.1,-999.0,99,-99.99,,,0.37,Acu-Link.com,2013-04-30 02:40:00,
2013-04-29 22:55:00,59.0,58.7,29.79,NE,45,0.0,-999.0,99,-99.99,,,0.37,Acu-Link.com,2013-04-30 02:55:00,
2013-04-29 23:10:00,59.0,58.7,29.79,NE,45,1.1,-999.0,99,-99.99,,,0.37,Acu-Link.com,2013-04-30 03:10:00,
2013-04-29 23:25:00,59.0,58.7,29.78,NNE,22,0.0,-999.0,99,-99.99,,,0.37,Acu-Link.com,2013-04-30 03:25:00,
2013-04-29 23:40:00,59.0,58.7,29.78,NE,45,0.0,-999.0,99,-99.99,,,0.37,Acu-Link.com,2013-04-30 03:40:00,
2013-04-29 23:56:00,59.0,58.7,29.78,North,0,0.0,-999.0,99,-99.99,,,0.37,Acu-Link.com,2013-04-30 03:56:00,